createdAt,value
2022-09-04T00:00:09.147Z,4.85
2022-09-04T00:03:05.675Z,5.28
2022-09-04T00:05:37.740Z,7.53
2022-09-04T00:08:31.259Z,2.85
2022-09-04T00:11:12.788Z,6.72
2022-09-04T00:13:48.720Z,5.68
2022-09-04T00:16:22.195Z,4.75
2022-09-04T00:19:21.227Z,1.98
2022-09-04T00:21:56.546Z,1.83
2022-09-04T00:24:31.160Z,1.90
2022-09-04T00:27:07.401Z,1.80
2022-09-04T00:29:53.023Z,2.10
2022-09-04T00:32:25.463Z,2.22
2022-09-04T00:35:01.924Z,2.20
2022-09-04T00:37:35.097Z,2.28
2022-09-04T00:40:09.341Z,2.22
2022-09-04T00:42:51.050Z,2.22
2022-09-04T00:45:48.945Z,2.22
2022-09-04T00:48:23.315Z,2.30
2022-09-04T00:51:16.870Z,2.53
2022-09-04T00:54:11.054Z,2.00
2022-09-04T00:57:03.571Z,2.47
2022-09-04T01:00:01.469Z,2.17
2022-09-04T01:02:42.881Z,2.42
2022-09-04T01:05:27.311Z,2.42
2022-09-04T01:08:20.634Z,2.80
2022-09-04T01:11:09.008Z,3.30
2022-09-04T01:14:14.384Z,2.85
2022-09-04T01:16:47.931Z,2.63
2022-09-04T01:19:14.619Z,2.97
2022-09-04T01:21:44.452Z,2.70
2022-09-04T01:24:25.519Z,2.80
2022-09-04T01:27:16.193Z,3.00
2022-09-04T01:30:05.780Z,2.92
2022-09-04T01:32:43.669Z,2.72
2022-09-04T01:35:27.621Z,2.95
2022-09-04T01:38:03.079Z,3.20
2022-09-04T01:40:39.665Z,3.53
2022-09-04T01:43:12.639Z,2.95
2022-09-04T01:46:00.607Z,3.05
2022-09-04T01:48:48.022Z,3.05
2022-09-04T01:51:34.029Z,3.20
2022-09-04T01:54:44.773Z,3.47
2022-09-04T01:57:32.704Z,2.92
2022-09-04T02:00:10.502Z,3.25
2022-09-04T02:02:55.944Z,3.78
2022-09-04T02:05:25.556Z,3.05
2022-09-04T02:08:26.831Z,3.47
2022-09-04T02:11:15.798Z,2.83
2022-09-04T02:14:08.622Z,3.33
2022-09-04T02:16:54.068Z,3.30
2022-09-04T02:19:35.109Z,3.25
2022-09-04T02:22:15.972Z,2.80
2022-09-04T02:24:58.804Z,2.80
2022-09-04T02:28:03.840Z,3.08
2022-09-04T02:30:54.117Z,2.95
2022-09-04T02:33:31.118Z,3.13
2022-09-04T02:36:23.444Z,3.42
2022-09-04T02:39:05.157Z,2.65
2022-09-04T02:41:51.002Z,3.40
2022-09-04T02:44:39.376Z,3.25
2022-09-04T02:47:31.190Z,3.45
2022-09-04T02:50:17.243Z,3.97
2022-09-04T02:52:52.424Z,3.85
2022-09-04T02:55:44.478Z,2.88
2022-09-04T02:58:47.566Z,2.65
2022-09-04T03:01:20.313Z,3.42
2022-09-04T03:04:12.748Z,3.28
2022-09-04T03:06:57.142Z,2.85
2022-09-04T03:09:46.621Z,3.25
2022-09-04T03:12:37.246Z,3.50
2022-09-04T03:15:29.337Z,5.72
2022-09-04T03:18:04.830Z,6.40
2022-09-04T03:20:44.651Z,5.03
2022-09-04T03:23:36.599Z,6.50
2022-09-04T03:26:20.714Z,16.55
2022-09-04T03:28:56.506Z,21.02
2022-09-04T03:31:34.258Z,7.30
2022-09-04T03:34:39.211Z,4.78
2022-09-04T03:37:27.492Z,7.43
2022-09-04T03:40:21.583Z,6.72
2022-09-04T03:43:12.653Z,6.05
2022-09-04T03:45:57.513Z,5.28
2022-09-04T03:48:51.820Z,5.43
2022-09-04T03:51:42.708Z,8.32
2022-09-04T03:54:26.040Z,6.25
2022-09-04T03:57:06.290Z,6.32
2022-09-04T03:59:47.690Z,6.45
2022-09-04T04:02:30.052Z,6.80
2022-09-04T04:05:08.925Z,7.28
2022-09-04T04:07:47.928Z,7.77
2022-09-04T04:10:33.723Z,7.85
2022-09-04T04:13:27.694Z,5.80
2022-09-04T04:16:10.966Z,5.82
2022-09-04T04:19:10.771Z,9.23
2022-09-04T04:22:01.512Z,10.32
2022-09-04T04:24:39.652Z,8.73
2022-09-04T04:27:27.717Z,9.95
2022-09-04T04:30:09.800Z,7.70
2022-09-04T04:33:10.390Z,7.32
2022-09-04T04:35:52.036Z,8.20
2022-09-04T04:38:55.074Z,6.70
2022-09-04T04:42:00.811Z,5.63
2022-09-04T04:45:04.095Z,6.95
2022-09-04T04:47:50.271Z,12.48
2022-09-04T04:50:41.919Z,11.52
2022-09-04T04:53:32.291Z,8.82
2022-09-04T04:56:34.060Z,12.95
2022-09-04T04:59:13.850Z,14.13
2022-09-04T05:02:07.809Z,15.05
2022-09-04T05:05:02.856Z,10.88
2022-09-04T05:07:37.621Z,10.07
2022-09-04T05:10:23.331Z,17.60
2022-09-04T05:13:10.213Z,18.05
2022-09-04T05:16:08.018Z,18.63
2022-09-04T05:19:00.239Z,17.75
2022-09-04T05:21:36.571Z,17.58
2022-09-04T05:24:13.252Z,18.00
2022-09-04T05:26:52.914Z,18.23
2022-09-04T05:32:01.236Z,17.17
2022-09-04T05:34:39.801Z,23.27
2022-09-04T05:37:51.044Z,21.40
2022-09-04T05:40:47.268Z,22.42
2022-09-04T05:43:39.006Z,26.63
2022-09-04T05:46:30.848Z,24.33
2022-09-04T05:49:09.211Z,28.10
2022-09-04T05:51:53.077Z,31.20
2022-09-04T05:54:51.810Z,29.42
2022-09-04T05:57:25.583Z,29.37
2022-09-04T06:00:04.152Z,27.52
2022-09-04T06:02:45.944Z,27.15
2022-09-04T06:05:46.853Z,27.48
2022-09-04T06:08:32.998Z,28.23
2022-09-04T06:11:25.668Z,26.38
2022-09-04T06:14:03.416Z,25.88
2022-09-04T06:16:55.450Z,28.25
2022-09-04T06:23:24.778Z,26.77
2022-09-04T06:26:00.427Z,28.20
2022-09-04T06:38:26.265Z,28.98
2022-09-04T06:41:12.303Z,27.60
2022-09-04T06:43:55.936Z,27.30
2022-09-04T06:46:41.488Z,28.40
2022-09-04T06:49:15.632Z,27.15
2022-09-04T06:52:21.190Z,25.73
2022-09-04T06:55:00.518Z,25.52
2022-09-04T06:57:46.508Z,26.45
2022-09-04T07:03:19.618Z,29.13
2022-09-04T07:06:04.174Z,26.27
2022-09-04T07:09:16.893Z,26.05
2022-09-04T07:12:09.847Z,26.52
2022-09-04T07:14:49.591Z,26.05
2022-09-04T07:17:33.434Z,25.70
2022-09-04T07:20:22.274Z,24.52
2022-09-04T07:23:15.967Z,23.25
2022-09-04T07:26:11.365Z,23.30
2022-09-04T07:32:11.317Z,21.60
2022-09-04T07:34:51.056Z,18.35
2022-09-04T07:40:17.619Z,18.55
2022-09-04T07:42:57.565Z,18.67
2022-09-04T07:45:37.009Z,19.40
2022-09-04T07:51:05.296Z,17.95
2022-09-04T07:53:44.017Z,16.90
2022-09-04T07:56:17.211Z,17.80
2022-09-04T08:02:10.187Z,15.55
2022-09-04T08:05:12.720Z,15.80
2022-09-04T08:07:39.508Z,13.18
2022-09-04T08:14:04.531Z,13.48
2022-09-04T08:16:43.660Z,13.88
2022-09-04T08:22:48.925Z,12.20
2022-09-04T08:25:46.299Z,11.60
2022-09-04T08:28:26.934Z,12.48
2022-09-04T08:31:03.981Z,12.02
2022-09-04T08:33:54.221Z,12.40
2022-09-04T08:36:32.752Z,11.45
2022-09-04T08:39:22.824Z,14.13
2022-09-04T08:42:08.200Z,13.75
2022-09-04T08:44:58.184Z,12.82
2022-09-04T08:48:03.531Z,15.18
2022-09-04T08:50:58.711Z,14.20
2022-09-04T08:53:47.085Z,14.25
2022-09-04T08:56:47.213Z,15.63
2022-09-04T09:02:19.540Z,13.57
2022-09-04T09:04:47.800Z,12.45
2022-09-04T09:07:37.347Z,12.63
2022-09-04T09:16:22.782Z,12.98
2022-09-04T09:19:22.850Z,12.57
2022-09-04T09:25:35.939Z,12.93
2022-09-04T09:28:27.563Z,14.30
2022-09-04T09:31:10.136Z,11.48
2022-09-04T09:33:54.943Z,13.05
2022-09-04T09:37:00.173Z,11.20
2022-09-04T09:43:04.413Z,10.55
2022-09-04T09:45:55.802Z,10.65
2022-09-04T09:48:48.492Z,11.00
2022-09-04T09:51:49.431Z,11.93
2022-09-04T09:54:16.260Z,10.40
2022-09-04T09:57:09.113Z,10.13
2022-09-04T10:00:06.680Z,12.27
2022-09-04T10:02:52.165Z,11.20
2022-09-04T10:05:49.567Z,12.75
2022-09-04T10:08:54.058Z,13.93
2022-09-04T10:11:29.212Z,12.48
2022-09-04T10:14:23.170Z,12.40
2022-09-04T10:17:19.474Z,12.02
2022-09-04T10:20:16.675Z,11.15
2022-09-04T10:22:55.622Z,11.20
2022-09-04T10:25:49.052Z,11.27
2022-09-04T10:28:25.944Z,10.80
2022-09-04T10:31:26.117Z,10.10
2022-09-04T10:34:14.854Z,7.10
2022-09-04T10:37:20.266Z,10.32
2022-09-04T10:40:44.453Z,10.57
2022-09-04T10:43:37.222Z,9.00
2022-09-04T10:46:23.365Z,8.82
2022-09-04T10:49:19.320Z,9.60
2022-09-04T10:52:24.582Z,7.40
2022-09-04T10:55:29.181Z,8.65
2022-09-04T10:58:19.076Z,9.38
2022-09-04T11:01:03.389Z,7.45
2022-09-04T11:03:57.432Z,6.90
2022-09-04T11:06:52.815Z,7.07
2022-09-04T11:09:42.116Z,7.95
2022-09-04T11:22:35.015Z,5.68
2022-09-04T11:25:37.419Z,6.32
2022-09-04T11:28:32.283Z,4.97
2022-09-04T11:31:14.481Z,5.03
2022-09-04T11:34:04.987Z,4.80
2022-09-04T11:36:53.199Z,3.97
2022-09-04T11:39:45.925Z,3.33
2022-09-04T11:42:33.846Z,4.30
2022-09-04T11:45:26.989Z,3.40
2022-09-04T11:48:03.142Z,2.80
2022-09-04T11:50:43.521Z,1.83
2022-09-04T11:53:37.717Z,1.77
2022-09-04T11:56:25.635Z,2.25
2022-09-04T11:59:12.284Z,1.70
2022-09-04T12:01:52.329Z,1.63
2022-09-04T12:04:42.985Z,1.50
2022-09-04T12:07:25.806Z,1.88
2022-09-04T12:10:12.316Z,1.80
2022-09-04T12:13:14.632Z,2.20
2022-09-04T12:16:07.954Z,2.33
2022-09-04T12:19:00.972Z,2.22
2022-09-04T12:21:35.805Z,1.67
2022-09-04T12:24:24.083Z,1.50
2022-09-04T12:27:12.547Z,1.77
2022-09-04T12:29:48.060Z,1.75
2022-09-04T12:32:35.939Z,1.92
2022-09-04T12:35:25.768Z,1.90
2022-09-04T12:38:24.444Z,1.98
2022-09-04T12:41:14.269Z,2.10
2022-09-04T12:43:48.651Z,2.20
2022-09-04T12:46:35.743Z,2.58
2022-09-04T12:49:29.366Z,2.50
2022-09-04T12:52:19.389Z,2.17
2022-09-04T12:54:52.363Z,2.50
2022-09-04T12:57:22.478Z,2.78
2022-09-04T13:00:12.097Z,2.90
2022-09-04T13:02:45.089Z,2.53
2022-09-04T13:05:56.548Z,2.17
2022-09-04T13:08:33.303Z,2.85
2022-09-04T13:11:30.960Z,2.40
2022-09-04T13:14:18.898Z,2.03
2022-09-04T13:17:15.495Z,27.40
2022-09-04T13:19:54.982Z,71.63
2022-09-04T13:22:36.099Z,21.88
2022-09-04T13:25:16.111Z,10.40
2022-09-04T13:28:12.117Z,55.05
2022-09-04T13:30:57.227Z,31.77
2022-09-04T13:33:51.291Z,23.50
2022-09-04T13:36:23.999Z,14.18
2022-09-04T13:39:31.053Z,5.03
2022-09-04T13:42:13.329Z,9.98
2022-09-04T13:44:58.260Z,6.10
2022-09-04T13:47:32.769Z,5.18
2022-09-04T13:50:17.158Z,6.70
2022-09-04T13:52:59.526Z,5.00
2022-09-04T13:55:38.761Z,2.92
2022-09-04T13:58:20.025Z,3.40
2022-09-04T14:00:51.772Z,4.03
2022-09-04T14:03:41.297Z,3.15
2022-09-04T14:06:11.502Z,2.38
2022-09-04T14:08:39.835Z,3.33
2022-09-04T14:11:30.099Z,1.67
2022-09-04T14:14:30.744Z,1.70
2022-09-04T14:16:58.481Z,1.92
2022-09-04T14:19:57.679Z,1.58
2022-09-04T14:25:11.664Z,1.35
2022-09-04T14:27:50.658Z,1.60
2022-09-04T14:30:22.222Z,1.52
2022-09-04T14:33:18.908Z,1.27
2022-09-04T14:39:01.015Z,1.67
2022-09-04T14:41:52.096Z,1.60
2022-09-04T14:44:45.073Z,1.48
2022-09-04T14:47:33.510Z,1.60
2022-09-04T14:50:01.346Z,1.40
2022-09-04T14:53:17.290Z,1.65
2022-09-04T14:56:27.788Z,1.30
2022-09-04T14:59:12.968Z,1.73
2022-09-04T15:02:08.988Z,1.58
2022-09-04T15:07:42.209Z,1.60
2022-09-04T15:10:26.963Z,1.17
2022-09-04T15:13:18.586Z,1.42
2022-09-04T15:18:53.740Z,0.80
2022-09-04T15:21:55.909Z,1.30
2022-09-04T15:24:32.790Z,1.30
2022-09-04T15:27:45.712Z,28.77
2022-09-04T15:30:22.203Z,40.65
2022-09-04T15:33:02.762Z,16.60
2022-09-04T15:35:33.914Z,7.97
2022-09-04T15:38:25.401Z,23.67
2022-09-04T15:41:15.570Z,13.45
2022-09-04T15:43:48.395Z,9.35
2022-09-04T15:46:37.432Z,8.10
2022-09-04T15:49:28.890Z,3.08
2022-09-04T15:58:33.606Z,2.75
2022-09-04T16:01:06.724Z,2.83
2022-09-04T16:03:42.267Z,1.80
2022-09-04T16:09:20.812Z,1.63
2022-09-04T16:12:10.274Z,1.85
2022-09-04T16:17:26.091Z,1.88
2022-09-04T16:20:08.928Z,1.73
2022-09-04T16:25:50.611Z,1.40
2022-09-04T16:28:31.314Z,1.30
2022-09-04T16:34:20.026Z,1.17
2022-09-04T16:36:53.162Z,1.25
2022-09-04T16:42:37.615Z,1.17
2022-09-04T16:45:13.582Z,1.13
2022-09-04T16:48:33.938Z,1.30
2022-09-04T16:51:29.253Z,1.58
2022-09-04T16:57:13.514Z,1.30
2022-09-04T17:00:14.191Z,1.40
2022-09-04T17:06:06.237Z,1.23
2022-09-04T17:08:45.877Z,1.48
2022-09-04T17:14:36.086Z,1.40
2022-09-04T17:17:31.649Z,1.42
2022-09-04T17:20:03.770Z,1.17
2022-09-04T17:29:08.972Z,1.50
2022-09-04T17:29:08.974Z,1.65
2022-09-04T17:31:48.696Z,1.40
2022-09-04T17:40:43.842Z,1.30
2022-09-04T17:40:44.000Z,1.55
2022-09-04T17:41:34.444Z,1.63
2022-09-04T17:44:26.056Z,2.10
2022-09-04T17:47:20.436Z,1.42
2022-09-04T17:49:50.767Z,2.03
2022-09-04T17:52:31.019Z,2.08
2022-09-04T17:58:15.288Z,1.63
2022-09-04T18:01:14.128Z,1.77
2022-09-04T18:04:20.500Z,1.98
2022-09-04T18:06:56.918Z,1.88
2022-09-04T18:12:37.811Z,2.17
2022-09-04T18:15:33.528Z,1.70
2022-09-04T18:18:28.562Z,1.55
2022-09-04T18:20:55.578Z,4.22
2022-09-04T18:23:48.154Z,9.63
2022-09-04T18:26:41.175Z,2.10
2022-09-04T18:30:13.888Z,2.00
2022-09-04T18:37:22.643Z,1.65
2022-09-04T18:37:44.245Z,1.60
2022-09-04T18:39:09.728Z,1.50
2022-09-04T18:49:25.148Z,1.83
2022-09-04T18:50:44.413Z,1.50
2022-09-04T18:51:26.658Z,1.40
2022-09-04T18:54:14.136Z,1.95
2022-09-04T18:56:47.835Z,2.00
2022-09-04T19:02:23.184Z,1.73
2022-09-04T19:04:50.355Z,1.50
2022-09-04T19:10:26.526Z,2.45
2022-09-04T19:13:01.895Z,2.55
2022-09-04T19:21:36.229Z,1.50
2022-09-04T19:24:18.017Z,2.00
2022-09-04T19:27:02.376Z,1.77
2022-09-04T19:29:54.372Z,1.88
2022-09-04T19:32:46.443Z,2.05
2022-09-04T19:35:23.211Z,1.83
2022-09-04T19:42:12.873Z,2.35
2022-09-04T19:46:03.406Z,2.22
2022-09-04T19:47:31.137Z,1.90
2022-09-04T19:53:20.078Z,2.03
2022-09-04T19:53:40.755Z,2.15
2022-09-04T19:59:45.814Z,2.38
2022-09-04T20:02:30.359Z,1.92
2022-09-04T20:08:26.413Z,2.42
2022-09-04T20:11:01.654Z,2.63
2022-09-04T20:13:47.741Z,2.20
2022-09-04T20:19:39.694Z,2.70
2022-09-04T20:22:09.302Z,2.47
2022-09-04T20:27:40.355Z,2.40
2022-09-04T20:30:31.987Z,5.70
2022-09-04T20:33:19.719Z,2.40
2022-09-04T20:35:59.876Z,2.83
2022-09-04T20:38:48.937Z,2.65
2022-09-04T20:41:42.500Z,4.05
2022-09-04T20:44:13.378Z,2.70
2022-09-04T20:52:55.061Z,2.65
2022-09-04T20:53:55.519Z,2.47
2022-09-04T20:57:43.566Z,2.92
2022-09-04T21:03:14.434Z,2.85
2022-09-04T21:06:30.071Z,2.78
2022-09-04T21:09:35.420Z,2.50
2022-09-04T21:12:30.623Z,2.40
2022-09-04T21:15:08.635Z,2.88
2022-09-04T21:21:23.207Z,2.05
2022-09-04T21:24:02.780Z,3.20
2022-09-04T21:26:43.312Z,2.78
2022-09-04T21:29:28.907Z,2.67
2022-09-04T21:32:17.344Z,3.28
2022-09-04T21:34:54.737Z,3.20
2022-09-04T21:37:53.216Z,2.90
2022-09-04T21:40:59.737Z,2.85
2022-09-04T21:43:33.400Z,2.40
2022-09-04T21:46:28.921Z,2.63
2022-09-04T21:52:33.007Z,2.95
2022-09-04T21:59:01.963Z,2.80
2022-09-04T22:04:13.606Z,2.97
2022-09-04T22:13:29.417Z,2.80
2022-09-04T22:13:47.911Z,2.50
2022-09-04T22:19:55.751Z,2.58
2022-09-04T22:23:06.714Z,3.03
2022-09-04T22:25:47.772Z,2.83
2022-09-04T22:28:15.263Z,3.05
2022-09-04T22:31:19.926Z,2.78
2022-09-04T22:34:15.650Z,2.50
2022-09-04T22:49:49.712Z,2.88
2022-09-04T22:52:52.312Z,5.00
2022-09-04T22:56:08.066Z,3.17
2022-09-04T23:01:56.210Z,2.90
2022-09-04T23:04:58.412Z,2.50
2022-09-04T23:14:05.136Z,2.60
2022-09-04T23:16:45.691Z,2.95
2022-09-04T23:26:35.670Z,2.80
2022-09-04T23:26:43.218Z,2.60
2022-09-04T23:26:50.177Z,2.85
2022-09-04T23:32:29.746Z,2.58
2022-09-04T23:35:15.857Z,3.08
2022-09-04T23:38:03.959Z,2.38
2022-09-04T23:40:38.178Z,3.05
2022-09-04T23:46:23.742Z,2.95
2022-09-04T23:49:06.897Z,2.85
2022-09-04T23:52:04.973Z,2.70
2022-09-04T23:54:53.527Z,2.83
2022-09-04T23:57:44.839Z,2.90
